Augusta Regional At Bush Field
KAGS : now visible

Aeroporto :











RITROVATECI SU...

 
LOGIN :

Iscrizione | Disclaimer

   EN    FR    IT 

 









Sommario :    VFR   VFR Marginale   IFR   IFR Intensivo   IFR Molto Intensivo
Visibilità : 
Base nubi : 
>= 8 km
>= 3000ft
5 / 8 km
1000 / 3000 ft
1500m / 5 km
500 / 1000 ft
800 / 1500m
200 / 500 ft
< 800m
< 200 ft
Simboli :   Temporali  Nebbia  Neve Forte  Precipitazioni Forti  Vento > 20 kt







- Altitudine del aeroporto : 144 ft
- Codice IATA : AGS


KAGS - Augusta Regional At Bush Field

ULTIMO METAR :
  • 201353Z 24016G22KT 10SM BKN025 BKN030 OVC055 13/06 A2977 RMK AO2 SLP081 T01280061 $

METARs OBSOLETI :
  • 201336Z 22013KT 10SM BKN025 BKN030 OVC055 13/07 A2977 RMK AO2 T01280067 $
  • 201253Z 20009KT 10SM FEW023 12/07 A2977 RMK AO2 SLP080 T01170072 $
  • 201153Z 22005KT 10SM BKN049 10/06 A2976 RMK AO2 SLP077 70040 T01000061 10122 20078 51022 $

TAF KAGS
Valido dal 20 a 12 ore il 21 a 12 ore UTC


201137Z 2012/2112 25008KT P6SM FEW025 BKN035
FM201400 24015G25KT P6SM BKN035
FM210000 26010KT P6SM BKN040
FM210600 23006KT P6SM FEW035
FIR KZTL / America del Nord



MetMap, La meteo Aeronautica in un colpo d'occhio ! - Copyright ORBIFLY Dicembre 2007 - Disclaimer

ORBIFLY MET'MAP TEAM :

Programmazione e sviluppo : Alexandra Zaïnal
Concezione e sviluppo : Baudouin d'Aumeries
Co-Programmazione e sviluppo : Marc-Olivier Méhu
Supporto tecnico e logistico : Manuel Goepfert
Aiuto per la traduzione : Arnaldo La Scala

Contatto : metmap@orbifly.com




FONTI E CREDITI :

   NOAA       Earth
Advisory